This is the latest recevied weather packets stored in our database for station/object KD5UMO-1. If no packets are shown the sender has not sent any weather packets the latest 1 day(s).
| Time | Temp. | Humidity | Pressure | Rain* | Wind** | Luminosity | Snow |
|---|---|---|---|---|---|---|---|
| 1778099583 | 15.56° C | 76% | 1014.5 hPa | 0 mm | - | 271 W/m² | - |
| 1778098673 | 15.56° C | 75% | 1014.2 hPa | 0 mm | - | 295 W/m² | - |
| 1778096550 | 14.44° C | 79% | 1014.9 hPa | 0 mm | - | 176 W/m² | - |
| 1778095641 | 14.44° C | 80% | 1014.9 hPa | 0 mm | - | 169 W/m² | - |
| 1778095338 | 14.44° C | 80% | 1015 hPa | 0 mm | - | 187 W/m² | - |
| 1778093512 | 13.89° C | 80% | 1014.9 hPa | 0 mm | - | 256 W/m² | - |
| 1778093204 | 13.89° C | 82% | 1014.5 hPa | 0 mm | - | 303 W/m² | - |
| 1778092901 | 13.89° C | 82% | 1014.5 hPa | 0 mm | - | 252 W/m² | - |
| 1778091688 | 13.89° C | 82% | 1013.7 hPa | 0 mm | - | 261 W/m² | - |
| 1778091386 | 13.89° C | 82% | 1013.5 hPa | 0 mm | - | 318 W/m² | - |
| 1778091083 | 13.89° C | 83% | 1013.6 hPa | 0 mm | - | 432 W/m² | - |
| 1778090476 | 13.33° C | 85% | 1014 hPa | 0 mm | - | 394 W/m² | - |
| 1778088658 | 12.78° C | 88% | 1013.8 hPa | 0 mm | - | 261 W/m² | - |
| 1778087749 | 12.22° C | 90% | 1014.6 hPa | 0 mm | - | 157 W/m² | - |
| 1778087144 | 12.22° C | 90% | 1014.4 hPa | 0 mm | - | 139 W/m² | - |
| 1778086534 | 12.22° C | 91% | 1014.5 hPa | 0 mm | - | 97 W/m² | - |
| 1778086230 | 12.22° C | 91% | 1014.8 hPa | 0 mm | - | 124 W/m² | - |
| 1778084712 | 12.22° C | 91% | 1015.8 hPa | 0 mm | - | 101 W/m² | - |
| 1778084101 | 12.22° C | 92% | 1014.9 hPa | 0 mm | - | 245 W/m² | - |
| 1778083798 | 12.22° C | 93% | 1014.7 hPa | 0 mm | - | 286 W/m² | - |
| 1778081782 | 11.67° C | 87% | 1016.5 hPa | 6.6 mm | - | 31 W/m² | - |
| 1778080573 | 12.78° C | 81% | 1015 hPa | 0 mm | - | 58 W/m² | - |
| 1778079663 | 12.22° C | 81% | 1014.5 hPa | 0 mm | - | 102 W/m² | - |
| 1778079360 | 12.78° C | 80% | 1015.2 hPa | 0 mm | - | 51 W/m² | - |
| 1778079057 | 12.78° C | 80% | 1014.9 hPa | 0 mm | - | 112 W/m² | - |
* Rain latest hour (hover to see other rain measurements)
** Current wind speed in m/s (hover to see current wind gust speed)